sensor_id;sensor_type;location;lat;lon;timestamp;temperature;humidity
22633;DHT22;11483;55.828;37.488;2024-01-30T00:02:13;0.30;99.90
22633;DHT22;11483;55.828;37.488;2024-01-30T00:04:39;0.20;99.90
22633;DHT22;11483;55.828;37.488;2024-01-30T00:07:05;0.20;99.90
22633;DHT22;11483;55.828;37.488;2024-01-30T00:09:31;0.30;99.90
22633;DHT22;11483;55.828;37.488;2024-01-30T00:11:57;0.30;99.90
22633;DHT22;11483;55.828;37.488;2024-01-30T00:14:23;0.00;99.90
22633;DHT22;11483;55.828;37.488;2024-01-30T00:16:49;0.30;99.90
22633;DHT22;11483;55.828;37.488;2024-01-30T00:19:14;0.30;99.90
22633;DHT22;11483;55.828;37.488;2024-01-30T00:21:40;0.40;99.90
22633;DHT22;11483;55.828;37.488;2024-01-30T00:24:07;0.30;99.90
22633;DHT22;11483;55.828;37.488;2024-01-30T00:26:33;0.40;99.90
22633;DHT22;11483;55.828;37.488;2024-01-30T00:28:59;0.40;99.90
22633;DHT22;11483;55.828;37.488;2024-01-30T00:31:25;0.40;99.90
22633;DHT22;11483;55.828;37.488;2024-01-30T00:33:51;0.40;99.90
22633;DHT22;11483;55.828;37.488;2024-01-30T00:36:17;0.40;99.90
22633;DHT22;11483;55.828;37.488;2024-01-30T00:38:43;0.40;99.90
22633;DHT22;11483;55.828;37.488;2024-01-30T00:41:09;0.40;99.90
22633;DHT22;11483;55.828;37.488;2024-01-30T00:43:36;0.50;99.90
22633;DHT22;11483;55.828;37.488;2024-01-30T00:46:02;0.50;99.90
22633;DHT22;11483;55.828;37.488;2024-01-30T00:48:27;0.50;99.90
22633;DHT22;11483;55.828;37.488;2024-01-30T00:50:53;0.50;99.90
22633;DHT22;11483;55.828;37.488;2024-01-30T00:53:19;0.50;99.90
22633;DHT22;11483;55.828;37.488;2024-01-30T00:55:45;0.50;99.90
22633;DHT22;11483;55.828;37.488;2024-01-30T00:58:11;0.50;99.90
22633;DHT22;11483;55.828;37.488;2024-01-30T01:00:37;0.60;99.90
22633;DHT22;11483;55.828;37.488;2024-01-30T01:03:03;0.50;99.90
22633;DHT22;11483;55.828;37.488;2024-01-30T01:05:29;0.60;99.90
22633;DHT22;11483;55.828;37.488;2024-01-30T01:07:55;0.60;99.90
22633;DHT22;11483;55.828;37.488;2024-01-30T01:10:21;0.60;99.90
22633;DHT22;11483;55.828;37.488;2024-01-30T01:12:48;0.60;99.90
22633;DHT22;11483;55.828;37.488;2024-01-30T01:15:14;0.60;99.90
22633;DHT22;11483;55.828;37.488;2024-01-30T01:17:40;0.60;99.90
22633;DHT22;11483;55.828;37.488;2024-01-30T01:20:07;0.60;99.90
22633;DHT22;11483;55.828;37.488;2024-01-30T01:22:33;0.60;99.90
22633;DHT22;11483;55.828;37.488;2024-01-30T01:25:00;0.60;99.90
22633;DHT22;11483;55.828;37.488;2024-01-30T01:27:26;0.60;99.90
22633;DHT22;11483;55.828;37.488;2024-01-30T01:29:53;0.60;99.90
22633;DHT22;11483;55.828;37.488;2024-01-30T01:32:19;0.60;99.90
22633;DHT22;11483;55.828;37.488;2024-01-30T01:34:46;0.70;99.90
22633;DHT22;11483;55.828;37.488;2024-01-30T01:37:12;0.70;99.90
22633;DHT22;11483;55.828;37.488;2024-01-30T01:39:38;0.60;99.90
22633;DHT22;11483;55.828;37.488;2024-01-30T01:42:04;0.60;99.90
22633;DHT22;11483;55.828;37.488;2024-01-30T01:44:30;0.60;99.90
22633;DHT22;11483;55.828;37.488;2024-01-30T01:46:57;0.60;99.90
22633;DHT22;11483;55.828;37.488;2024-01-30T01:49:25;0.60;99.90
22633;DHT22;11483;55.828;37.488;2024-01-30T01:51:55;0.70;99.90
22633;DHT22;11483;55.828;37.488;2024-01-30T01:54:22;0.60;99.90
22633;DHT22;11483;55.828;37.488;2024-01-30T01:56:50;0.70;99.90
22633;DHT22;11483;55.828;37.488;2024-01-30T01:59:18;0.70;99.90
22633;DHT22;11483;55.828;37.488;2024-01-30T02:01:45;0.70;99.90
22633;DHT22;11483;55.828;37.488;2024-01-30T02:04:15;0.70;99.90
22633;DHT22;11483;55.828;37.488;2024-01-30T02:06:41;0.70;99.90
22633;DHT22;11483;55.828;37.488;2024-01-30T02:09:08;0.80;99.90
22633;DHT22;11483;55.828;37.488;2024-01-30T02:11:35;0.80;99.90
22633;DHT22;11483;55.828;37.488;2024-01-30T02:14:07;0.80;99.90
22633;DHT22;11483;55.828;37.488;2024-01-30T02:16:33;0.80;99.90
22633;DHT22;11483;55.828;37.488;2024-01-30T02:18:59;0.90;99.90
22633;DHT22;11483;55.828;37.488;2024-01-30T02:21:29;0.80;99.90
22633;DHT22;11483;55.828;37.488;2024-01-30T02:23:55;0.80;99.90
22633;DHT22;11483;55.828;37.488;2024-01-30T02:26:22;0.90;99.90
22633;DHT22;11483;55.828;37.488;2024-01-30T02:28:48;0.90;99.90
22633;DHT22;11483;55.828;37.488;2024-01-30T02:31:14;0.90;99.90
22633;DHT22;11483;55.828;37.488;2024-01-30T02:33:40;0.90;99.90
22633;DHT22;11483;55.828;37.488;2024-01-30T02:36:06;0.90;99.90
22633;DHT22;11483;55.828;37.488;2024-01-30T02:38:32;0.90;99.90
22633;DHT22;11483;55.828;37.488;2024-01-30T02:40:58;1.00;99.90
22633;DHT22;11483;55.828;37.488;2024-01-30T02:43:24;1.00;99.90
22633;DHT22;11483;55.828;37.488;2024-01-30T02:45:49;1.00;99.90
22633;DHT22;11483;55.828;37.488;2024-01-30T02:48:15;1.00;99.90
22633;DHT22;11483;55.828;37.488;2024-01-30T02:50:41;0.90;99.90
22633;DHT22;11483;55.828;37.488;2024-01-30T02:53:07;1.00;99.90
22633;DHT22;11483;55.828;37.488;2024-01-30T02:55:33;1.00;99.90
22633;DHT22;11483;55.828;37.488;2024-01-30T02:57:59;1.10;99.90
22633;DHT22;11483;55.828;37.488;2024-01-30T03:00:25;1.00;99.90
22633;DHT22;11483;55.828;37.488;2024-01-30T03:02:51;1.00;99.90
22633;DHT22;11483;55.828;37.488;2024-01-30T03:05:17;1.10;99.90
22633;DHT22;11483;55.828;37.488;2024-01-30T03:07:43;1.10;99.90
22633;DHT22;11483;55.828;37.488;2024-01-30T03:10:09;1.00;99.90
22633;DHT22;11483;55.828;37.488;2024-01-30T03:12:35;1.00;99.90
22633;DHT22;11483;55.828;37.488;2024-01-30T03:15:01;1.10;99.90
22633;DHT22;11483;55.828;37.488;2024-01-30T03:17:27;1.10;99.90
22633;DHT22;11483;55.828;37.488;2024-01-30T03:19:53;1.10;99.90
22633;DHT22;11483;55.828;37.488;2024-01-30T03:22:19;1.10;99.90
22633;DHT22;11483;55.828;37.488;2024-01-30T03:24:45;1.10;99.90
22633;DHT22;11483;55.828;37.488;2024-01-30T03:27:11;1.20;99.90
22633;DHT22;11483;55.828;37.488;2024-01-30T03:29:37;1.20;99.90
22633;DHT22;11483;55.828;37.488;2024-01-30T03:32:03;1.20;99.90
22633;DHT22;11483;55.828;37.488;2024-01-30T03:34:30;1.20;99.90
22633;DHT22;11483;55.828;37.488;2024-01-30T03:36:56;1.20;99.90
22633;DHT22;11483;55.828;37.488;2024-01-30T03:39:22;1.20;99.90
22633;DHT22;11483;55.828;37.488;2024-01-30T03:41:48;1.30;99.90
22633;DHT22;11483;55.828;37.488;2024-01-30T03:44:14;1.30;99.90
22633;DHT22;11483;55.828;37.488;2024-01-30T03:46:40;1.20;99.90
22633;DHT22;11483;55.828;37.488;2024-01-30T03:49:06;1.20;99.90
22633;DHT22;11483;55.828;37.488;2024-01-30T03:51:31;1.30;99.90
22633;DHT22;11483;55.828;37.488;2024-01-30T03:53:57;1.30;99.90
22633;DHT22;11483;55.828;37.488;2024-01-30T03:56:23;1.30;99.90
22633;DHT22;11483;55.828;37.488;2024-01-30T03:58:51;1.20;99.90
22633;DHT22;11483;55.828;37.488;2024-01-30T04:01:17;1.30;99.90
22633;DHT22;11483;55.828;37.488;2024-01-30T04:03:43;1.30;99.90
22633;DHT22;11483;55.828;37.488;2024-01-30T04:06:10;1.30;99.90
22633;DHT22;11483;55.828;37.488;2024-01-30T04:08:36;1.30;99.90
22633;DHT22;11483;55.828;37.488;2024-01-30T04:11:06;1.30;99.90
22633;DHT22;11483;55.828;37.488;2024-01-30T04:13:32;1.30;99.90
22633;DHT22;11483;55.828;37.488;2024-01-30T04:16:02;1.30;99.90
22633;DHT22;11483;55.828;37.488;2024-01-30T04:18:31;1.30;99.90
22633;DHT22;11483;55.828;37.488;2024-01-30T04:21:00;1.40;99.90
22633;DHT22;11483;55.828;37.488;2024-01-30T04:23:26;1.30;99.90
22633;DHT22;11483;55.828;37.488;2024-01-30T04:25:52;1.30;99.90
22633;DHT22;11483;55.828;37.488;2024-01-30T04:28:18;1.30;99.90
22633;DHT22;11483;55.828;37.488;2024-01-30T04:30:44;1.40;99.90
22633;DHT22;11483;55.828;37.488;2024-01-30T04:33:10;1.40;99.90
22633;DHT22;11483;55.828;37.488;2024-01-30T04:35:38;1.40;99.90
22633;DHT22;11483;55.828;37.488;2024-01-30T04:38:04;1.40;99.90
22633;DHT22;11483;55.828;37.488;2024-01-30T04:40:29;1.40;99.90
22633;DHT22;11483;55.828;37.488;2024-01-30T04:42:55;1.40;99.90
22633;DHT22;11483;55.828;37.488;2024-01-30T04:45:21;1.40;99.90
22633;DHT22;11483;55.828;37.488;2024-01-30T04:47:47;1.40;99.90
22633;DHT22;11483;55.828;37.488;2024-01-30T04:50:13;1.40;99.90
22633;DHT22;11483;55.828;37.488;2024-01-30T04:52:39;1.40;99.90
22633;DHT22;11483;55.828;37.488;2024-01-30T04:55:05;1.40;99.90
22633;DHT22;11483;55.828;37.488;2024-01-30T04:57:32;1.40;99.90
22633;DHT22;11483;55.828;37.488;2024-01-30T04:59:59;1.50;99.90
22633;DHT22;11483;55.828;37.488;2024-01-30T05:02:25;1.50;99.90
22633;DHT22;11483;55.828;37.488;2024-01-30T05:04:51;1.50;99.90
22633;DHT22;11483;55.828;37.488;2024-01-30T05:07:17;1.50;99.90
22633;DHT22;11483;55.828;37.488;2024-01-30T05:09:43;1.50;99.90
22633;DHT22;11483;55.828;37.488;2024-01-30T05:12:09;1.60;99.90
22633;DHT22;11483;55.828;37.488;2024-01-30T05:14:35;1.60;99.90
22633;DHT22;11483;55.828;37.488;2024-01-30T05:17:01;1.60;99.90
22633;DHT22;11483;55.828;37.488;2024-01-30T05:19:28;1.60;99.90
22633;DHT22;11483;55.828;37.488;2024-01-30T05:21:54;1.60;99.90
22633;DHT22;11483;55.828;37.488;2024-01-30T05:24:20;1.60;99.90
22633;DHT22;11483;55.828;37.488;2024-01-30T05:26:46;1.60;99.90
22633;DHT22;11483;55.828;37.488;2024-01-30T05:29:13;1.60;99.90
22633;DHT22;11483;55.828;37.488;2024-01-30T05:31:39;1.60;99.90
22633;DHT22;11483;55.828;37.488;2024-01-30T05:34:06;1.60;99.90
22633;DHT22;11483;55.828;37.488;2024-01-30T05:36:32;1.60;99.90
22633;DHT22;11483;55.828;37.488;2024-01-30T05:38:58;1.70;99.90
22633;DHT22;11483;55.828;37.488;2024-01-30T05:41:24;1.60;99.90
22633;DHT22;11483;55.828;37.488;2024-01-30T05:43:50;1.60;99.90
22633;DHT22;11483;55.828;37.488;2024-01-30T05:46:16;1.60;99.90
22633;DHT22;11483;55.828;37.488;2024-01-30T05:48:42;1.60;99.90
22633;DHT22;11483;55.828;37.488;2024-01-30T05:51:08;1.60;99.90
22633;DHT22;11483;55.828;37.488;2024-01-30T05:53:34;1.70;99.90
22633;DHT22;11483;55.828;37.488;2024-01-30T05:56:04;1.70;99.90
22633;DHT22;11483;55.828;37.488;2024-01-30T05:58:30;1.70;99.90
22633;DHT22;11483;55.828;37.488;2024-01-30T06:00:58;1.70;99.90
22633;DHT22;11483;55.828;37.488;2024-01-30T06:03:24;1.70;99.90
22633;DHT22;11483;55.828;37.488;2024-01-30T06:05:50;1.70;99.90
22633;DHT22;11483;55.828;37.488;2024-01-30T06:08:17;1.70;99.90
22633;DHT22;11483;55.828;37.488;2024-01-30T06:10:43;1.70;99.90
22633;DHT22;11483;55.828;37.488;2024-01-30T06:13:09;1.70;99.90
22633;DHT22;11483;55.828;37.488;2024-01-30T06:15:35;1.70;99.90
22633;DHT22;11483;55.828;37.488;2024-01-30T06:18:00;1.70;99.90
22633;DHT22;11483;55.828;37.488;2024-01-30T06:20:26;1.80;99.90
22633;DHT22;11483;55.828;37.488;2024-01-30T06:22:52;1.80;99.90
22633;DHT22;11483;55.828;37.488;2024-01-30T06:25:18;1.80;99.90
22633;DHT22;11483;55.828;37.488;2024-01-30T06:30:29;1.80;99.90
22633;DHT22;11483;55.828;37.488;2024-01-30T06:32:55;1.80;99.90
22633;DHT22;11483;55.828;37.488;2024-01-30T06:35:21;1.80;99.90
22633;DHT22;11483;55.828;37.488;2024-01-30T06:37:47;1.90;99.90
22633;DHT22;11483;55.828;37.488;2024-01-30T06:40:13;1.90;99.90
22633;DHT22;11483;55.828;37.488;2024-01-30T06:42:39;2.00;99.90
22633;DHT22;11483;55.828;37.488;2024-01-30T06:45:05;2.00;99.90
22633;DHT22;11483;55.828;37.488;2024-01-30T06:47:31;2.00;99.90
22633;DHT22;11483;55.828;37.488;2024-01-30T06:49:57;2.00;99.90
22633;DHT22;11483;55.828;37.488;2024-01-30T06:52:23;2.00;99.90
22633;DHT22;11483;55.828;37.488;2024-01-30T06:54:49;2.00;99.90
22633;DHT22;11483;55.828;37.488;2024-01-30T06:57:15;2.10;99.90
22633;DHT22;11483;55.828;37.488;2024-01-30T06:59:41;2.10;99.90
22633;DHT22;11483;55.828;37.488;2024-01-30T07:02:09;2.10;99.90
22633;DHT22;11483;55.828;37.488;2024-01-30T07:04:36;2.10;99.90
22633;DHT22;11483;55.828;37.488;2024-01-30T07:07:06;2.10;99.90
22633;DHT22;11483;55.828;37.488;2024-01-30T07:09:38;2.00;99.90
22633;DHT22;11483;55.828;37.488;2024-01-30T07:12:04;2.10;99.90
22633;DHT22;11483;55.828;37.488;2024-01-30T07:14:31;2.10;99.90
22633;DHT22;11483;55.828;37.488;2024-01-30T07:16:57;2.10;99.90
22633;DHT22;11483;55.828;37.488;2024-01-30T07:19:23;2.20;99.90
22633;DHT22;11483;55.828;37.488;2024-01-30T07:21:49;2.20;99.90
22633;DHT22;11483;55.828;37.488;2024-01-30T07:24:15;2.30;99.90
22633;DHT22;11483;55.828;37.488;2024-01-30T07:26:41;2.30;99.90
22633;DHT22;11483;55.828;37.488;2024-01-30T07:29:07;2.40;99.90
22633;DHT22;11483;55.828;37.488;2024-01-30T07:31:33;2.40;99.90
22633;DHT22;11483;55.828;37.488;2024-01-30T07:33:59;2.30;99.90
22633;DHT22;11483;55.828;37.488;2024-01-30T07:36:25;2.30;99.90
22633;DHT22;11483;55.828;37.488;2024-01-30T07:38:54;2.30;99.90
22633;DHT22;11483;55.828;37.488;2024-01-30T07:41:21;2.30;99.90
22633;DHT22;11483;55.828;37.488;2024-01-30T07:43:46;2.30;99.90
22633;DHT22;11483;55.828;37.488;2024-01-30T07:46:12;2.40;99.90
22633;DHT22;11483;55.828;37.488;2024-01-30T07:48:38;2.40;99.90
22633;DHT22;11483;55.828;37.488;2024-01-30T07:51:04;2.40;99.90
22633;DHT22;11483;55.828;37.488;2024-01-30T07:53:31;2.50;99.90
22633;DHT22;11483;55.828;37.488;2024-01-30T07:56:13;2.50;99.90
22633;DHT22;11483;55.828;37.488;2024-01-30T07:58:39;2.50;99.90
22633;DHT22;11483;55.828;37.488;2024-01-30T08:01:05;2.60;99.90
22633;DHT22;11483;55.828;37.488;2024-01-30T08:03:30;2.60;99.90
22633;DHT22;11483;55.828;37.488;2024-01-30T08:05:56;2.50;99.90
22633;DHT22;11483;55.828;37.488;2024-01-30T08:08:22;2.50;99.90
22633;DHT22;11483;55.828;37.488;2024-01-30T08:10:48;2.50;99.90
22633;DHT22;11483;55.828;37.488;2024-01-30T08:13:15;2.50;99.90
22633;DHT22;11483;55.828;37.488;2024-01-30T08:15:41;2.40;99.90
22633;DHT22;11483;55.828;37.488;2024-01-30T08:18:07;2.50;99.90
22633;DHT22;11483;55.828;37.488;2024-01-30T08:20:33;2.50;99.90
22633;DHT22;11483;55.828;37.488;2024-01-30T08:22:59;2.60;99.90
22633;DHT22;11483;55.828;37.488;2024-01-30T08:25:26;2.60;99.90
22633;DHT22;11483;55.828;37.488;2024-01-30T08:27:52;2.60;99.90
22633;DHT22;11483;55.828;37.488;2024-01-30T08:30:18;2.70;99.90
22633;DHT22;11483;55.828;37.488;2024-01-30T08:32:44;2.70;99.90
22633;DHT22;11483;55.828;37.488;2024-01-30T08:35:10;2.70;99.90
22633;DHT22;11483;55.828;37.488;2024-01-30T08:37:39;2.60;99.90
22633;DHT22;11483;55.828;37.488;2024-01-30T08:40:06;2.60;99.90
22633;DHT22;11483;55.828;37.488;2024-01-30T08:42:34;2.60;99.90
22633;DHT22;11483;55.828;37.488;2024-01-30T08:45:00;2.70;99.90
22633;DHT22;11483;55.828;37.488;2024-01-30T08:47:26;2.80;99.90
22633;DHT22;11483;55.828;37.488;2024-01-30T08:49:52;2.80;99.90
22633;DHT22;11483;55.828;37.488;2024-01-30T08:52:17;2.80;99.90
22633;DHT22;11483;55.828;37.488;2024-01-30T08:54:43;2.80;99.90
22633;DHT22;11483;55.828;37.488;2024-01-30T08:57:09;2.80;99.90
22633;DHT22;11483;55.828;37.488;2024-01-30T08:59:35;2.70;99.90
22633;DHT22;11483;55.828;37.488;2024-01-30T09:02:01;2.70;99.90
22633;DHT22;11483;55.828;37.488;2024-01-30T09:04:28;2.60;99.90
22633;DHT22;11483;55.828;37.488;2024-01-30T09:06:54;2.70;99.90
22633;DHT22;11483;55.828;37.488;2024-01-30T09:09:20;2.70;99.90
22633;DHT22;11483;55.828;37.488;2024-01-30T09:11:46;2.70;99.90
22633;DHT22;11483;55.828;37.488;2024-01-30T09:14:12;2.80;99.90
22633;DHT22;11483;55.828;37.488;2024-01-30T09:16:38;2.80;99.90
22633;DHT22;11483;55.828;37.488;2024-01-30T09:19:23;2.80;99.90
22633;DHT22;11483;55.828;37.488;2024-01-30T09:21:48;2.90;99.90
22633;DHT22;11483;55.828;37.488;2024-01-30T09:24:14;2.90;99.90
22633;DHT22;11483;55.828;37.488;2024-01-30T09:26:40;2.90;99.90
22633;DHT22;11483;55.828;37.488;2024-01-30T09:29:06;3.00;99.90
22633;DHT22;11483;55.828;37.488;2024-01-30T09:31:32;3.10;99.90
22633;DHT22;11483;55.828;37.488;2024-01-30T09:33:58;3.20;99.90
22633;DHT22;11483;55.828;37.488;2024-01-30T09:36:24;3.30;99.90
22633;DHT22;11483;55.828;37.488;2024-01-30T09:38:50;3.30;99.90
22633;DHT22;11483;55.828;37.488;2024-01-30T09:41:19;3.30;99.90
22633;DHT22;11483;55.828;37.488;2024-01-30T09:43:48;3.30;99.90
22633;DHT22;11483;55.828;37.488;2024-01-30T09:46:17;3.20;99.90
22633;DHT22;11483;55.828;37.488;2024-01-30T09:48:49;3.20;99.90
22633;DHT22;11483;55.828;37.488;2024-01-30T09:51:15;3.20;99.90
22633;DHT22;11483;55.828;37.488;2024-01-30T09:53:43;3.10;99.90
22633;DHT22;11483;55.828;37.488;2024-01-30T09:56:12;3.20;99.90
22633;DHT22;11483;55.828;37.488;2024-01-30T09:58:38;3.20;99.90
22633;DHT22;11483;55.828;37.488;2024-01-30T10:01:05;3.30;99.90
22633;DHT22;11483;55.828;37.488;2024-01-30T10:03:32;3.30;99.90
22633;DHT22;11483;55.828;37.488;2024-01-30T10:05:58;3.40;99.90
22633;DHT22;11483;55.828;37.488;2024-01-30T10:08:26;3.40;99.90
22633;DHT22;11483;55.828;37.488;2024-01-30T10:10:52;3.40;99.90
22633;DHT22;11483;55.828;37.488;2024-01-30T10:13:18;3.40;99.90
22633;DHT22;11483;55.828;37.488;2024-01-30T10:15:44;3.30;99.90
22633;DHT22;11483;55.828;37.488;2024-01-30T10:18:13;3.30;99.90
22633;DHT22;11483;55.828;37.488;2024-01-30T10:20:39;3.30;99.90
22633;DHT22;11483;55.828;37.488;2024-01-30T10:23:05;3.30;99.90
22633;DHT22;11483;55.828;37.488;2024-01-30T10:25:31;3.30;99.90
22633;DHT22;11483;55.828;37.488;2024-01-30T10:27:59;3.30;99.90
22633;DHT22;11483;55.828;37.488;2024-01-30T10:30:28;3.20;99.90
22633;DHT22;11483;55.828;37.488;2024-01-30T10:32:54;3.10;99.90
22633;DHT22;11483;55.828;37.488;2024-01-30T10:35:21;3.10;99.90
22633;DHT22;11483;55.828;37.488;2024-01-30T10:37:50;3.20;99.90
22633;DHT22;11483;55.828;37.488;2024-01-30T10:40:16;3.20;99.90
22633;DHT22;11483;55.828;37.488;2024-01-30T10:42:46;3.20;99.90
22633;DHT22;11483;55.828;37.488;2024-01-30T10:45:13;3.20;99.90
22633;DHT22;11483;55.828;37.488;2024-01-30T10:47:58;3.30;99.90
22633;DHT22;11483;55.828;37.488;2024-01-30T10:50:25;3.40;99.90
22633;DHT22;11483;55.828;37.488;2024-01-30T10:52:53;3.50;99.90
22633;DHT22;11483;55.828;37.488;2024-01-30T10:55:21;3.60;99.90
22633;DHT22;11483;55.828;37.488;2024-01-30T10:57:49;3.70;99.90
22633;DHT22;11483;55.828;37.488;2024-01-30T11:00:16;3.80;99.90
22633;DHT22;11483;55.828;37.488;2024-01-30T11:02:46;3.90;99.90
22633;DHT22;11483;55.828;37.488;2024-01-30T11:05:13;4.00;99.90
22633;DHT22;11483;55.828;37.488;2024-01-30T11:07:41;4.00;99.90
22633;DHT22;11483;55.828;37.488;2024-01-30T11:10:07;3.90;99.90
22633;DHT22;11483;55.828;37.488;2024-01-30T11:12:39;3.80;99.90
22633;DHT22;11483;55.828;37.488;2024-01-30T11:15:10;3.80;99.90
22633;DHT22;11483;55.828;37.488;2024-01-30T11:17:50;3.70;99.90
22633;DHT22;11483;55.828;37.488;2024-01-30T11:20:29;3.50;99.90
22633;DHT22;11483;55.828;37.488;2024-01-30T11:22:59;3.40;99.90
22633;DHT22;11483;55.828;37.488;2024-01-30T11:25:32;3.40;99.90
22633;DHT22;11483;55.828;37.488;2024-01-30T11:27:58;3.40;99.90
22633;DHT22;11483;55.828;37.488;2024-01-30T11:30:31;3.40;99.90
22633;DHT22;11483;55.828;37.488;2024-01-30T11:33:10;3.40;99.90
22633;DHT22;11483;55.828;37.488;2024-01-30T11:35:44;3.30;99.90
22633;DHT22;11483;55.828;37.488;2024-01-30T11:38:13;3.30;99.90
22633;DHT22;11483;55.828;37.488;2024-01-30T11:40:40;3.20;99.90
22633;DHT22;11483;55.828;37.488;2024-01-30T11:43:08;3.20;99.90
22633;DHT22;11483;55.828;37.488;2024-01-30T11:45:35;3.20;99.90
22633;DHT22;11483;55.828;37.488;2024-01-30T11:48:02;3.20;99.90
22633;DHT22;11483;55.828;37.488;2024-01-30T11:50:34;3.20;99.90
22633;DHT22;11483;55.828;37.488;2024-01-30T11:53:01;3.30;99.90
22633;DHT22;11483;55.828;37.488;2024-01-30T11:55:30;3.30;99.90
22633;DHT22;11483;55.828;37.488;2024-01-30T11:57:57;3.20;99.90
22633;DHT22;11483;55.828;37.488;2024-01-30T12:00:24;3.10;99.90
22633;DHT22;11483;55.828;37.488;2024-01-30T12:02:54;3.10;99.90
22633;DHT22;11483;55.828;37.488;2024-01-30T12:05:24;3.00;99.90
22633;DHT22;11483;55.828;37.488;2024-01-30T12:07:51;3.00;99.90
22633;DHT22;11483;55.828;37.488;2024-01-30T12:10:17;3.00;99.90
22633;DHT22;11483;55.828;37.488;2024-01-30T12:12:47;3.00;99.90
22633;DHT22;11483;55.828;37.488;2024-01-30T12:15:13;3.10;99.90
22633;DHT22;11483;55.828;37.488;2024-01-30T12:17:40;3.10;99.90
22633;DHT22;11483;55.828;37.488;2024-01-30T12:20:11;3.20;99.90
22633;DHT22;11483;55.828;37.488;2024-01-30T12:22:41;3.30;99.90
22633;DHT22;11483;55.828;37.488;2024-01-30T12:25:18;3.30;99.90
22633;DHT22;11483;55.828;37.488;2024-01-30T12:27:50;3.30;99.90
22633;DHT22;11483;55.828;37.488;2024-01-30T12:30:17;3.30;99.90
22633;DHT22;11483;55.828;37.488;2024-01-30T12:32:45;3.30;99.90
22633;DHT22;11483;55.828;37.488;2024-01-30T12:35:13;3.30;99.90
22633;DHT22;11483;55.828;37.488;2024-01-30T12:37:40;3.30;99.90
22633;DHT22;11483;55.828;37.488;2024-01-30T12:40:11;3.20;99.90
22633;DHT22;11483;55.828;37.488;2024-01-30T12:42:38;3.20;99.90
22633;DHT22;11483;55.828;37.488;2024-01-30T12:45:05;3.20;99.90
22633;DHT22;11483;55.828;37.488;2024-01-30T12:47:31;3.20;99.90
22633;DHT22;11483;55.828;37.488;2024-01-30T12:49:58;3.20;99.90
22633;DHT22;11483;55.828;37.488;2024-01-30T12:52:24;3.10;99.90
22633;DHT22;11483;55.828;37.488;2024-01-30T12:54:50;3.10;99.90
22633;DHT22;11483;55.828;37.488;2024-01-30T12:57:17;3.10;99.90
22633;DHT22;11483;55.828;37.488;2024-01-30T12:59:44;3.10;99.90
22633;DHT22;11483;55.828;37.488;2024-01-30T13:02:12;3.10;99.90
22633;DHT22;11483;55.828;37.488;2024-01-30T13:04:38;3.10;99.90
22633;DHT22;11483;55.828;37.488;2024-01-30T13:07:04;3.10;99.90
22633;DHT22;11483;55.828;37.488;2024-01-30T13:09:30;3.10;99.90
22633;DHT22;11483;55.828;37.488;2024-01-30T13:11:58;3.00;99.90
22633;DHT22;11483;55.828;37.488;2024-01-30T13:14:24;3.10;99.90
22633;DHT22;11483;55.828;37.488;2024-01-30T13:16:50;3.00;99.90
22633;DHT22;11483;55.828;37.488;2024-01-30T13:19:17;3.00;99.90
22633;DHT22;11483;55.828;37.488;2024-01-30T13:21:42;3.00;99.90
22633;DHT22;11483;55.828;37.488;2024-01-30T13:24:08;3.00;99.90
22633;DHT22;11483;55.828;37.488;2024-01-30T13:26:35;3.00;99.90
22633;DHT22;11483;55.828;37.488;2024-01-30T13:29:01;3.00;99.90
22633;DHT22;11483;55.828;37.488;2024-01-30T13:31:27;2.90;99.90
22633;DHT22;11483;55.828;37.488;2024-01-30T13:33:54;3.00;99.90
22633;DHT22;11483;55.828;37.488;2024-01-30T13:36:21;3.00;99.90
22633;DHT22;11483;55.828;37.488;2024-01-30T13:38:47;2.90;99.90
22633;DHT22;11483;55.828;37.488;2024-01-30T13:41:13;2.90;99.90
22633;DHT22;11483;55.828;37.488;2024-01-30T13:43:39;2.90;99.90
22633;DHT22;11483;55.828;37.488;2024-01-30T13:46:05;2.90;99.90
22633;DHT22;11483;55.828;37.488;2024-01-30T13:48:31;2.90;99.90
22633;DHT22;11483;55.828;37.488;2024-01-30T13:50:57;2.90;99.90
22633;DHT22;11483;55.828;37.488;2024-01-30T13:53:23;2.80;99.90
22633;DHT22;11483;55.828;37.488;2024-01-30T13:55:49;2.90;99.90
22633;DHT22;11483;55.828;37.488;2024-01-30T13:58:15;2.80;99.90
22633;DHT22;11483;55.828;37.488;2024-01-30T14:00:41;2.80;99.90
22633;DHT22;11483;55.828;37.488;2024-01-30T14:03:07;2.70;99.90
22633;DHT22;11483;55.828;37.488;2024-01-30T14:05:33;2.80;99.90
22633;DHT22;11483;55.828;37.488;2024-01-30T14:08:00;2.80;99.90
22633;DHT22;11483;55.828;37.488;2024-01-30T14:10:26;2.70;99.90
22633;DHT22;11483;55.828;37.488;2024-01-30T14:12:52;2.70;99.90
22633;DHT22;11483;55.828;37.488;2024-01-30T14:15:18;2.80;99.90
22633;DHT22;11483;55.828;37.488;2024-01-30T14:17:44;2.80;99.90
22633;DHT22;11483;55.828;37.488;2024-01-30T14:20:11;2.80;99.90
22633;DHT22;11483;55.828;37.488;2024-01-30T14:22:37;2.80;99.90
22633;DHT22;11483;55.828;37.488;2024-01-30T14:25:04;2.80;99.90
22633;DHT22;11483;55.828;37.488;2024-01-30T14:27:31;2.80;99.90
22633;DHT22;11483;55.828;37.488;2024-01-30T14:29:57;2.80;99.90
22633;DHT22;11483;55.828;37.488;2024-01-30T14:32:24;2.70;99.90
22633;DHT22;11483;55.828;37.488;2024-01-30T14:34:51;2.70;99.90
22633;DHT22;11483;55.828;37.488;2024-01-30T14:37:18;2.70;99.90
22633;DHT22;11483;55.828;37.488;2024-01-30T14:39:44;2.70;99.90
22633;DHT22;11483;55.828;37.488;2024-01-30T14:42:10;2.70;99.90
22633;DHT22;11483;55.828;37.488;2024-01-30T14:44:39;2.60;99.90
22633;DHT22;11483;55.828;37.488;2024-01-30T14:47:05;2.60;99.90
22633;DHT22;11483;55.828;37.488;2024-01-30T14:49:32;2.60;99.90
22633;DHT22;11483;55.828;37.488;2024-01-30T14:51:58;2.70;99.90
22633;DHT22;11483;55.828;37.488;2024-01-30T14:54:30;2.60;99.90
22633;DHT22;11483;55.828;37.488;2024-01-30T14:56:56;2.70;99.90
22633;DHT22;11483;55.828;37.488;2024-01-30T14:59:22;2.70;99.90
22633;DHT22;11483;55.828;37.488;2024-01-30T15:01:48;2.60;99.90
22633;DHT22;11483;55.828;37.488;2024-01-30T15:04:14;2.70;99.90
22633;DHT22;11483;55.828;37.488;2024-01-30T15:06:40;2.70;99.90
22633;DHT22;11483;55.828;37.488;2024-01-30T15:09:14;2.70;99.90
22633;DHT22;11483;55.828;37.488;2024-01-30T15:11:43;2.70;99.90
22633;DHT22;11483;55.828;37.488;2024-01-30T15:14:10;2.70;99.90
22633;DHT22;11483;55.828;37.488;2024-01-30T15:16:36;2.70;99.90
22633;DHT22;11483;55.828;37.488;2024-01-30T15:19:03;2.70;99.90
22633;DHT22;11483;55.828;37.488;2024-01-30T15:21:30;2.70;99.90
22633;DHT22;11483;55.828;37.488;2024-01-30T15:23:56;2.80;99.90
22633;DHT22;11483;55.828;37.488;2024-01-30T15:26:22;2.70;99.90
22633;DHT22;11483;55.828;37.488;2024-01-30T15:28:49;2.60;99.90
22633;DHT22;11483;55.828;37.488;2024-01-30T15:31:14;2.60;99.90